sensor_id;sensor_type;location;lat;lon;timestamp;P1;durP1;ratioP1;P2;durP2;ratioP2
32872;SDS011;19224;52.462;16.898;2024-03-17T00:02:05;8.90;;;2.98;;
32872;SDS011;19224;52.462;16.898;2024-03-17T00:04:35;6.58;;;2.52;;
32872;SDS011;19224;52.462;16.898;2024-03-17T00:07:06;11.22;;;3.10;;
32872;SDS011;19224;52.462;16.898;2024-03-17T00:09:36;7.58;;;2.33;;
32872;SDS011;19224;52.462;16.898;2024-03-17T00:12:07;8.35;;;2.90;;
32872;SDS011;19224;52.462;16.898;2024-03-17T00:14:38;6.80;;;2.47;;
32872;SDS011;19224;52.462;16.898;2024-03-17T00:17:10;8.03;;;2.60;;
32872;SDS011;19224;52.462;16.898;2024-03-17T00:19:43;8.55;;;2.12;;
32872;SDS011;19224;52.462;16.898;2024-03-17T00:22:13;9.30;;;2.50;;
32872;SDS011;19224;52.462;16.898;2024-03-17T00:24:43;7.58;;;2.05;;
32872;SDS011;19224;52.462;16.898;2024-03-17T00:27:14;7.30;;;2.22;;
32872;SDS011;19224;52.462;16.898;2024-03-17T00:29:44;9.83;;;2.60;;
32872;SDS011;19224;52.462;16.898;2024-03-17T00:32:15;10.23;;;2.50;;
32872;SDS011;19224;52.462;16.898;2024-03-17T00:34:45;8.58;;;2.22;;
32872;SDS011;19224;52.462;16.898;2024-03-17T00:37:15;10.70;;;2.60;;
32872;SDS011;19224;52.462;16.898;2024-03-17T00:39:45;12.37;;;2.22;;
32872;SDS011;19224;52.462;16.898;2024-03-17T00:42:15;11.65;;;2.42;;
32872;SDS011;19224;52.462;16.898;2024-03-17T00:44:46;9.30;;;2.52;;
32872;SDS011;19224;52.462;16.898;2024-03-17T00:47:16;8.58;;;2.47;;
32872;SDS011;19224;52.462;16.898;2024-03-17T00:49:46;7.72;;;2.45;;
32872;SDS011;19224;52.462;16.898;2024-03-17T00:52:17;10.50;;;3.00;;
32872;SDS011;19224;52.462;16.898;2024-03-17T00:54:48;8.75;;;2.75;;
32872;SDS011;19224;52.462;16.898;2024-03-17T00:57:18;10.25;;;2.65;;
32872;SDS011;19224;52.462;16.898;2024-03-17T00:59:48;10.45;;;2.62;;
32872;SDS011;19224;52.462;16.898;2024-03-17T01:02:20;9.58;;;2.58;;
32872;SDS011;19224;52.462;16.898;2024-03-17T01:04:50;12.35;;;2.70;;
32872;SDS011;19224;52.462;16.898;2024-03-17T01:07:21;10.18;;;2.65;;
32872;SDS011;19224;52.462;16.898;2024-03-17T01:09:51;7.62;;;2.45;;
32872;SDS011;19224;52.462;16.898;2024-03-17T01:12:23;10.35;;;2.72;;
32872;SDS011;19224;52.462;16.898;2024-03-17T01:14:54;10.65;;;2.60;;
32872;SDS011;19224;52.462;16.898;2024-03-17T01:17:24;9.00;;;2.22;;
32872;SDS011;19224;52.462;16.898;2024-03-17T01:19:54;4.28;;;1.75;;
32872;SDS011;19224;52.462;16.898;2024-03-17T01:22:25;8.05;;;1.85;;
32872;SDS011;19224;52.462;16.898;2024-03-17T01:24:55;7.10;;;1.55;;
32872;SDS011;19224;52.462;16.898;2024-03-17T01:27:25;8.75;;;1.90;;
32872;SDS011;19224;52.462;16.898;2024-03-17T01:29:55;6.05;;;1.67;;
32872;SDS011;19224;52.462;16.898;2024-03-17T01:32:26;15.30;;;1.95;;
32872;SDS011;19224;52.462;16.898;2024-03-17T01:34:56;5.12;;;1.25;;
32872;SDS011;19224;52.462;16.898;2024-03-17T01:37:26;6.55;;;1.60;;
32872;SDS011;19224;52.462;16.898;2024-03-17T01:39:59;8.95;;;1.47;;
32872;SDS011;19224;52.462;16.898;2024-03-17T01:42:29;3.87;;;1.60;;
32872;SDS011;19224;52.462;16.898;2024-03-17T01:44:59;8.10;;;1.45;;
32872;SDS011;19224;52.462;16.898;2024-03-17T01:47:29;10.63;;;1.98;;
32872;SDS011;19224;52.462;16.898;2024-03-17T01:50:00;7.00;;;1.57;;
32872;SDS011;19224;52.462;16.898;2024-03-17T01:52:30;11.12;;;1.77;;
32872;SDS011;19224;52.462;16.898;2024-03-17T01:55:02;12.47;;;1.98;;
32872;SDS011;19224;52.462;16.898;2024-03-17T01:57:33;12.13;;;2.00;;
32872;SDS011;19224;52.462;16.898;2024-03-17T02:00:04;8.85;;;1.82;;
32872;SDS011;19224;52.462;16.898;2024-03-17T02:02:36;7.37;;;2.00;;
32872;SDS011;19224;52.462;16.898;2024-03-17T02:05:06;8.58;;;1.85;;
32872;SDS011;19224;52.462;16.898;2024-03-17T02:07:37;12.80;;;2.27;;
32872;SDS011;19224;52.462;16.898;2024-03-17T02:10:08;5.50;;;1.75;;
32872;SDS011;19224;52.462;16.898;2024-03-17T02:12:39;10.05;;;2.65;;
32872;SDS011;19224;52.462;16.898;2024-03-17T02:15:09;11.33;;;1.95;;
32872;SDS011;19224;52.462;16.898;2024-03-17T02:17:40;7.45;;;2.30;;
32872;SDS011;19224;52.462;16.898;2024-03-17T02:20:10;8.40;;;1.87;;
32872;SDS011;19224;52.462;16.898;2024-03-17T02:22:42;8.38;;;2.35;;
32872;SDS011;19224;52.462;16.898;2024-03-17T02:25:12;7.50;;;2.22;;
32872;SDS011;19224;52.462;16.898;2024-03-17T02:27:42;13.60;;;2.58;;
32872;SDS011;19224;52.462;16.898;2024-03-17T02:30:12;8.15;;;2.58;;
32872;SDS011;19224;52.462;16.898;2024-03-17T02:32:43;7.72;;;2.20;;
32872;SDS011;19224;52.462;16.898;2024-03-17T02:35:15;8.70;;;1.70;;
32872;SDS011;19224;52.462;16.898;2024-03-17T02:37:45;6.92;;;2.05;;
32872;SDS011;19224;52.462;16.898;2024-03-17T02:40:15;8.68;;;2.10;;
32872;SDS011;19224;52.462;16.898;2024-03-17T02:42:46;7.33;;;1.70;;
32872;SDS011;19224;52.462;16.898;2024-03-17T02:45:18;4.60;;;1.27;;
32872;SDS011;19224;52.462;16.898;2024-03-17T02:47:49;7.55;;;1.70;;
32872;SDS011;19224;52.462;16.898;2024-03-17T02:50:19;8.75;;;1.70;;
32872;SDS011;19224;52.462;16.898;2024-03-17T02:52:50;11.25;;;1.92;;
32872;SDS011;19224;52.462;16.898;2024-03-17T02:55:20;10.70;;;2.20;;
32872;SDS011;19224;52.462;16.898;2024-03-17T02:57:50;5.28;;;1.45;;
32872;SDS011;19224;52.462;16.898;2024-03-17T03:00:20;9.30;;;1.67;;
32872;SDS011;19224;52.462;16.898;2024-03-17T03:02:50;8.68;;;1.90;;
32872;SDS011;19224;52.462;16.898;2024-03-17T03:05:21;8.00;;;1.70;;
32872;SDS011;19224;52.462;16.898;2024-03-17T03:07:52;9.13;;;1.87;;
32872;SDS011;19224;52.462;16.898;2024-03-17T03:10:22;4.53;;;1.05;;
32872;SDS011;19224;52.462;16.898;2024-03-17T03:12:52;6.10;;;1.45;;
32872;SDS011;19224;52.462;16.898;2024-03-17T03:15:22;10.40;;;2.47;;
32872;SDS011;19224;52.462;16.898;2024-03-17T03:17:53;6.72;;;1.70;;
32872;SDS011;19224;52.462;16.898;2024-03-17T03:20:23;5.35;;;1.50;;
32872;SDS011;19224;52.462;16.898;2024-03-17T03:22:53;7.58;;;1.87;;
32872;SDS011;19224;52.462;16.898;2024-03-17T03:25:23;8.25;;;1.75;;
32872;SDS011;19224;52.462;16.898;2024-03-17T03:27:54;8.85;;;1.70;;
32872;SDS011;19224;52.462;16.898;2024-03-17T03:30:25;11.70;;;2.25;;
32872;SDS011;19224;52.462;16.898;2024-03-17T03:32:56;6.80;;;1.60;;
32872;SDS011;19224;52.462;16.898;2024-03-17T03:35:27;13.80;;;2.10;;
32872;SDS011;19224;52.462;16.898;2024-03-17T03:37:58;9.38;;;2.00;;
32872;SDS011;19224;52.462;16.898;2024-03-17T03:40:30;10.08;;;1.70;;
32872;SDS011;19224;52.462;16.898;2024-03-17T03:43:01;7.85;;;1.90;;
32872;SDS011;19224;52.462;16.898;2024-03-17T03:45:31;8.93;;;1.85;;
32872;SDS011;19224;52.462;16.898;2024-03-17T03:48:03;10.35;;;1.70;;
32872;SDS011;19224;52.462;16.898;2024-03-17T03:50:37;10.60;;;1.70;;
32872;SDS011;19224;52.462;16.898;2024-03-17T03:53:09;11.18;;;1.57;;
32872;SDS011;19224;52.462;16.898;2024-03-17T03:55:40;6.92;;;1.50;;
32872;SDS011;19224;52.462;16.898;2024-03-17T03:58:10;6.45;;;1.35;;
32872;SDS011;19224;52.462;16.898;2024-03-17T04:00:41;7.67;;;1.47;;
32872;SDS011;19224;52.462;16.898;2024-03-17T04:03:11;9.60;;;1.40;;
32872;SDS011;19224;52.462;16.898;2024-03-17T04:05:41;5.17;;;1.17;;
32872;SDS011;19224;52.462;16.898;2024-03-17T04:08:12;5.17;;;1.32;;
32872;SDS011;19224;52.462;16.898;2024-03-17T04:10:43;9.55;;;1.72;;
32872;SDS011;19224;52.462;16.898;2024-03-17T04:13:13;6.00;;;1.60;;
32872;SDS011;19224;52.462;16.898;2024-03-17T04:15:44;7.00;;;1.32;;
32872;SDS011;19224;52.462;16.898;2024-03-17T04:18:14;7.85;;;1.92;;
32872;SDS011;19224;52.462;16.898;2024-03-17T04:20:45;7.15;;;1.35;;
32872;SDS011;19224;52.462;16.898;2024-03-17T04:23:15;6.05;;;1.05;;
32872;SDS011;19224;52.462;16.898;2024-03-17T04:25:45;6.50;;;1.37;;
32872;SDS011;19224;52.462;16.898;2024-03-17T04:28:17;7.90;;;1.37;;
32872;SDS011;19224;52.462;16.898;2024-03-17T04:30:47;5.50;;;1.20;;
32872;SDS011;19224;52.462;16.898;2024-03-17T04:33:18;5.62;;;1.50;;
32872;SDS011;19224;52.462;16.898;2024-03-17T04:35:48;5.08;;;1.35;;
32872;SDS011;19224;52.462;16.898;2024-03-17T04:38:19;10.10;;;1.80;;
32872;SDS011;19224;52.462;16.898;2024-03-17T04:40:49;11.20;;;1.47;;
32872;SDS011;19224;52.462;16.898;2024-03-17T04:43:22;8.33;;;1.40;;
32872;SDS011;19224;52.462;16.898;2024-03-17T04:45:58;4.70;;;1.35;;
32872;SDS011;19224;52.462;16.898;2024-03-17T04:48:35;7.92;;;1.30;;
32872;SDS011;19224;52.462;16.898;2024-03-17T04:51:05;10.98;;;1.65;;
32872;SDS011;19224;52.462;16.898;2024-03-17T04:53:36;3.98;;;1.00;;
32872;SDS011;19224;52.462;16.898;2024-03-17T04:56:06;7.92;;;1.32;;
32872;SDS011;19224;52.462;16.898;2024-03-17T04:58:36;7.75;;;1.30;;
32872;SDS011;19224;52.462;16.898;2024-03-17T05:01:07;9.50;;;1.45;;
32872;SDS011;19224;52.462;16.898;2024-03-17T05:03:38;3.08;;;1.02;;
32872;SDS011;19224;52.462;16.898;2024-03-17T05:06:08;4.58;;;1.40;;
32872;SDS011;19224;52.462;16.898;2024-03-17T05:08:39;7.08;;;1.00;;
32872;SDS011;19224;52.462;16.898;2024-03-17T05:11:09;9.48;;;1.40;;
32872;SDS011;19224;52.462;16.898;2024-03-17T05:13:41;9.98;;;1.45;;
32872;SDS011;19224;52.462;16.898;2024-03-17T05:16:12;8.08;;;1.65;;
32872;SDS011;19224;52.462;16.898;2024-03-17T05:18:43;5.08;;;1.30;;
32872;SDS011;19224;52.462;16.898;2024-03-17T05:21:13;8.70;;;2.00;;
32872;SDS011;19224;52.462;16.898;2024-03-17T05:23:44;5.55;;;1.32;;
32872;SDS011;19224;52.462;16.898;2024-03-17T05:26:14;7.08;;;1.25;;
32872;SDS011;19224;52.462;16.898;2024-03-17T05:28:45;5.53;;;1.67;;
32872;SDS011;19224;52.462;16.898;2024-03-17T05:31:16;5.87;;;1.50;;
32872;SDS011;19224;52.462;16.898;2024-03-17T05:33:48;10.00;;;1.57;;
32872;SDS011;19224;52.462;16.898;2024-03-17T05:36:19;8.48;;;1.30;;
32872;SDS011;19224;52.462;16.898;2024-03-17T05:38:50;4.28;;;1.20;;
32872;SDS011;19224;52.462;16.898;2024-03-17T05:41:20;8.33;;;1.10;;
32872;SDS011;19224;52.462;16.898;2024-03-17T05:43:50;5.40;;;1.25;;
32872;SDS011;19224;52.462;16.898;2024-03-17T05:46:20;6.58;;;1.40;;
32872;SDS011;19224;52.462;16.898;2024-03-17T05:48:50;6.75;;;1.60;;
32872;SDS011;19224;52.462;16.898;2024-03-17T05:51:21;6.03;;;1.57;;
32872;SDS011;19224;52.462;16.898;2024-03-17T05:53:53;8.20;;;1.65;;
32872;SDS011;19224;52.462;16.898;2024-03-17T05:56:29;9.20;;;1.42;;
32872;SDS011;19224;52.462;16.898;2024-03-17T05:59:00;5.45;;;1.30;;
32872;SDS011;19224;52.462;16.898;2024-03-17T06:01:30;5.83;;;1.42;;
32872;SDS011;19224;52.462;16.898;2024-03-17T06:04:00;6.08;;;1.55;;
32872;SDS011;19224;52.462;16.898;2024-03-17T06:06:32;7.97;;;1.50;;
32872;SDS011;19224;52.462;16.898;2024-03-17T06:09:02;9.80;;;1.50;;
32872;SDS011;19224;52.462;16.898;2024-03-17T06:11:34;7.35;;;1.42;;
32872;SDS011;19224;52.462;16.898;2024-03-17T06:14:05;6.53;;;1.60;;
32872;SDS011;19224;52.462;16.898;2024-03-17T06:16:37;5.05;;;1.45;;
32872;SDS011;19224;52.462;16.898;2024-03-17T06:19:07;7.72;;;2.12;;
32872;SDS011;19224;52.462;16.898;2024-03-17T06:21:37;8.45;;;1.35;;
32872;SDS011;19224;52.462;16.898;2024-03-17T06:24:08;6.08;;;1.40;;
32872;SDS011;19224;52.462;16.898;2024-03-17T06:26:38;7.22;;;1.65;;
32872;SDS011;19224;52.462;16.898;2024-03-17T06:29:08;8.15;;;1.70;;
32872;SDS011;19224;52.462;16.898;2024-03-17T06:31:39;5.50;;;1.17;;
32872;SDS011;19224;52.462;16.898;2024-03-17T06:34:09;7.85;;;1.32;;
32872;SDS011;19224;52.462;16.898;2024-03-17T06:36:39;9.40;;;1.47;;
32872;SDS011;19224;52.462;16.898;2024-03-17T06:39:10;6.65;;;1.20;;
32872;SDS011;19224;52.462;16.898;2024-03-17T06:41:42;9.20;;;1.42;;
32872;SDS011;19224;52.462;16.898;2024-03-17T06:44:13;8.63;;;1.75;;
32872;SDS011;19224;52.462;16.898;2024-03-17T06:46:43;4.28;;;1.27;;
32872;SDS011;19224;52.462;16.898;2024-03-17T06:49:15;11.08;;;1.70;;
32872;SDS011;19224;52.462;16.898;2024-03-17T06:51:45;7.65;;;1.50;;
32872;SDS011;19224;52.462;16.898;2024-03-17T06:54:16;4.72;;;1.32;;
32872;SDS011;19224;52.462;16.898;2024-03-17T06:56:47;8.55;;;1.98;;
32872;SDS011;19224;52.462;16.898;2024-03-17T06:59:19;8.48;;;1.55;;
32872;SDS011;19224;52.462;16.898;2024-03-17T07:01:50;8.88;;;1.52;;
32872;SDS011;19224;52.462;16.898;2024-03-17T07:04:20;7.95;;;1.65;;
32872;SDS011;19224;52.462;16.898;2024-03-17T07:06:51;6.60;;;1.55;;
32872;SDS011;19224;52.462;16.898;2024-03-17T07:09:21;6.97;;;1.85;;
32872;SDS011;19224;52.462;16.898;2024-03-17T07:11:51;6.92;;;1.50;;
32872;SDS011;19224;52.462;16.898;2024-03-17T07:14:21;6.47;;;1.55;;
32872;SDS011;19224;52.462;16.898;2024-03-17T07:16:53;4.67;;;1.70;;
32872;SDS011;19224;52.462;16.898;2024-03-17T07:19:23;6.33;;;1.85;;
32872;SDS011;19224;52.462;16.898;2024-03-17T07:21:54;6.53;;;1.42;;
32872;SDS011;19224;52.462;16.898;2024-03-17T07:24:25;5.67;;;1.60;;
32872;SDS011;19224;52.462;16.898;2024-03-17T07:26:55;4.62;;;1.25;;
32872;SDS011;19224;52.462;16.898;2024-03-17T07:29:25;5.62;;;1.72;;
32872;SDS011;19224;52.462;16.898;2024-03-17T07:31:56;7.72;;;1.75;;
32872;SDS011;19224;52.462;16.898;2024-03-17T07:34:26;5.28;;;1.47;;
32872;SDS011;19224;52.462;16.898;2024-03-17T07:37:00;5.53;;;1.80;;
32872;SDS011;19224;52.462;16.898;2024-03-17T07:39:31;4.58;;;1.57;;
32872;SDS011;19224;52.462;16.898;2024-03-17T07:42:02;6.15;;;2.10;;
32872;SDS011;19224;52.462;16.898;2024-03-17T07:44:34;6.08;;;2.00;;
32872;SDS011;19224;52.462;16.898;2024-03-17T07:47:05;9.03;;;2.35;;
32872;SDS011;19224;52.462;16.898;2024-03-17T07:49:36;4.08;;;1.80;;
32872;SDS011;19224;52.462;16.898;2024-03-17T07:52:07;4.62;;;2.20;;
32872;SDS011;19224;52.462;16.898;2024-03-17T07:54:37;5.90;;;1.90;;
32872;SDS011;19224;52.462;16.898;2024-03-17T07:57:07;8.55;;;2.47;;
32872;SDS011;19224;52.462;16.898;2024-03-17T07:59:38;4.87;;;2.10;;
32872;SDS011;19224;52.462;16.898;2024-03-17T08:02:10;6.53;;;2.37;;
32872;SDS011;19224;52.462;16.898;2024-03-17T08:04:40;5.00;;;2.00;;
32872;SDS011;19224;52.462;16.898;2024-03-17T08:07:12;6.33;;;1.90;;
32872;SDS011;19224;52.462;16.898;2024-03-17T08:09:42;5.10;;;2.08;;
32872;SDS011;19224;52.462;16.898;2024-03-17T08:12:12;7.83;;;1.82;;
32872;SDS011;19224;52.462;16.898;2024-03-17T08:14:43;8.05;;;2.92;;
32872;SDS011;19224;52.462;16.898;2024-03-17T08:17:21;4.80;;;2.00;;
32872;SDS011;19224;52.462;16.898;2024-03-17T08:19:46;3.52;;;1.87;;
32872;SDS011;19224;52.462;16.898;2024-03-17T08:22:17;5.37;;;2.10;;
32872;SDS011;19224;52.462;16.898;2024-03-17T08:24:48;8.25;;;2.35;;
32872;SDS011;19224;52.462;16.898;2024-03-17T08:27:18;7.80;;;2.25;;
32872;SDS011;19224;52.462;16.898;2024-03-17T08:29:48;8.53;;;3.10;;
32872;SDS011;19224;52.462;16.898;2024-03-17T08:32:18;14.80;;;2.67;;
32872;SDS011;19224;52.462;16.898;2024-03-17T08:34:48;5.28;;;2.60;;
32872;SDS011;19224;52.462;16.898;2024-03-17T08:37:19;6.30;;;2.60;;
32872;SDS011;19224;52.462;16.898;2024-03-17T08:39:50;5.55;;;2.47;;
32872;SDS011;19224;52.462;16.898;2024-03-17T08:42:21;6.10;;;2.83;;
32872;SDS011;19224;52.462;16.898;2024-03-17T08:44:51;6.08;;;2.83;;
32872;SDS011;19224;52.462;16.898;2024-03-17T08:47:22;8.28;;;3.00;;
32872;SDS011;19224;52.462;16.898;2024-03-17T08:49:52;4.97;;;2.50;;
32872;SDS011;19224;52.462;16.898;2024-03-17T08:52:22;5.87;;;2.58;;
32872;SDS011;19224;52.462;16.898;2024-03-17T08:54:53;6.00;;;2.85;;
32872;SDS011;19224;52.462;16.898;2024-03-17T08:57:23;5.70;;;2.70;;
32872;SDS011;19224;52.462;16.898;2024-03-17T08:59:54;6.30;;;2.47;;
32872;SDS011;19224;52.462;16.898;2024-03-17T09:02:24;5.10;;;2.33;;
32872;SDS011;19224;52.462;16.898;2024-03-17T09:04:54;3.75;;;1.98;;
32872;SDS011;19224;52.462;16.898;2024-03-17T09:07:24;4.67;;;2.17;;
32872;SDS011;19224;52.462;16.898;2024-03-17T09:09:55;4.53;;;1.55;;
32872;SDS011;19224;52.462;16.898;2024-03-17T09:12:26;3.90;;;1.95;;
32872;SDS011;19224;52.462;16.898;2024-03-17T09:14:56;4.90;;;2.02;;
32872;SDS011;19224;52.462;16.898;2024-03-17T09:17:26;2.92;;;1.70;;
32872;SDS011;19224;52.462;16.898;2024-03-17T09:19:56;3.70;;;1.77;;
32872;SDS011;19224;52.462;16.898;2024-03-17T09:22:27;4.42;;;2.02;;
32872;SDS011;19224;52.462;16.898;2024-03-17T09:24:57;4.58;;;2.58;;
32872;SDS011;19224;52.462;16.898;2024-03-17T09:27:27;6.30;;;2.72;;
32872;SDS011;19224;52.462;16.898;2024-03-17T09:29:57;5.70;;;1.70;;
32872;SDS011;19224;52.462;16.898;2024-03-17T09:32:28;2.30;;;1.30;;
32872;SDS011;19224;52.462;16.898;2024-03-17T09:34:59;2.60;;;1.40;;
32872;SDS011;19224;52.462;16.898;2024-03-17T09:37:29;1.32;;;0.80;;
32872;SDS011;19224;52.462;16.898;2024-03-17T09:40:00;2.22;;;0.90;;
32872;SDS011;19224;52.462;16.898;2024-03-17T09:42:33;2.58;;;0.98;;
32872;SDS011;19224;52.462;16.898;2024-03-17T09:45:04;4.22;;;1.15;;
32872;SDS011;19224;52.462;16.898;2024-03-17T09:47:35;2.72;;;0.80;;
32872;SDS011;19224;52.462;16.898;2024-03-17T09:50:12;2.10;;;0.75;;
32872;SDS011;19224;52.462;16.898;2024-03-17T09:52:44;1.67;;;1.05;;
32872;SDS011;19224;52.462;16.898;2024-03-17T09:55:15;2.62;;;1.12;;
32872;SDS011;19224;52.462;16.898;2024-03-17T09:57:46;2.70;;;1.35;;
32872;SDS011;19224;52.462;16.898;2024-03-17T10:00:17;4.12;;;1.55;;
32872;SDS011;19224;52.462;16.898;2024-03-17T10:02:47;2.45;;;1.15;;
32872;SDS011;19224;52.462;16.898;2024-03-17T10:05:19;1.72;;;1.20;;
32872;SDS011;19224;52.462;16.898;2024-03-17T10:07:53;3.10;;;1.02;;
32872;SDS011;19224;52.462;16.898;2024-03-17T10:10:24;1.37;;;0.90;;
32872;SDS011;19224;52.462;16.898;2024-03-17T10:12:55;2.90;;;0.82;;
32872;SDS011;19224;52.462;16.898;2024-03-17T10:15:25;1.30;;;0.85;;
32872;SDS011;19224;52.462;16.898;2024-03-17T10:17:55;1.20;;;0.60;;
32872;SDS011;19224;52.462;16.898;2024-03-17T10:20:27;2.75;;;1.07;;
32872;SDS011;19224;52.462;16.898;2024-03-17T10:25:33;1.17;;;0.60;;
32872;SDS011;19224;52.462;16.898;2024-03-17T10:28:12;1.60;;;0.80;;
32872;SDS011;19224;52.462;16.898;2024-03-17T10:30:57;2.55;;;1.30;;
32872;SDS011;19224;52.462;16.898;2024-03-17T10:33:29;2.02;;;1.10;;
32872;SDS011;19224;52.462;16.898;2024-03-17T10:36:01;1.72;;;1.10;;
32872;SDS011;19224;52.462;16.898;2024-03-17T10:38:33;2.17;;;1.20;;
32872;SDS011;19224;52.462;16.898;2024-03-17T10:41:03;2.95;;;1.17;;
32872;SDS011;19224;52.462;16.898;2024-03-17T10:43:35;2.35;;;1.42;;
32872;SDS011;19224;52.462;16.898;2024-03-17T10:46:07;1.15;;;0.88;;
32872;SDS011;19224;52.462;16.898;2024-03-17T10:48:39;2.25;;;1.40;;
32872;SDS011;19224;52.462;16.898;2024-03-17T10:51:14;2.65;;;1.67;;
32872;SDS011;19224;52.462;16.898;2024-03-17T10:53:47;3.25;;;1.25;;
32872;SDS011;19224;52.462;16.898;2024-03-17T10:56:20;2.98;;;1.47;;
32872;SDS011;19224;52.462;16.898;2024-03-17T10:58:52;1.92;;;1.60;;
32872;SDS011;19224;52.462;16.898;2024-03-17T11:01:25;2.17;;;1.60;;
32872;SDS011;19224;52.462;16.898;2024-03-17T11:03:56;2.80;;;1.85;;
32872;SDS011;19224;52.462;16.898;2024-03-17T11:06:30;3.42;;;2.00;;
32872;SDS011;19224;52.462;16.898;2024-03-17T11:09:00;3.67;;;2.12;;
32872;SDS011;19224;52.462;16.898;2024-03-17T11:11:35;3.33;;;2.20;;
32872;SDS011;19224;52.462;16.898;2024-03-17T11:14:16;3.50;;;2.33;;
32872;SDS011;19224;52.462;16.898;2024-03-17T11:16:51;4.40;;;2.58;;
32872;SDS011;19224;52.462;16.898;2024-03-17T11:19:21;6.15;;;3.15;;
32872;SDS011;19224;52.462;16.898;2024-03-17T11:21:51;8.80;;;4.00;;
32872;SDS011;19224;52.462;16.898;2024-03-17T11:24:23;5.62;;;3.40;;
32872;SDS011;19224;52.462;16.898;2024-03-17T11:26:56;10.70;;;5.65;;
32872;SDS011;19224;52.462;16.898;2024-03-17T11:29:27;5.45;;;3.60;;
32872;SDS011;19224;52.462;16.898;2024-03-17T11:32:00;7.83;;;3.35;;
32872;SDS011;19224;52.462;16.898;2024-03-17T11:34:35;5.00;;;3.00;;
32872;SDS011;19224;52.462;16.898;2024-03-17T11:37:09;6.75;;;3.30;;
32872;SDS011;19224;52.462;16.898;2024-03-17T11:39:54;7.67;;;3.40;;
32872;SDS011;19224;52.462;16.898;2024-03-17T11:42:25;9.70;;;3.15;;
32872;SDS011;19224;52.462;16.898;2024-03-17T11:44:58;6.55;;;3.77;;
32872;SDS011;19224;52.462;16.898;2024-03-17T11:47:34;6.58;;;3.72;;
32872;SDS011;19224;52.462;16.898;2024-03-17T11:50:09;10.80;;;4.70;;
32872;SDS011;19224;52.462;16.898;2024-03-17T11:52:40;9.98;;;4.20;;
32872;SDS011;19224;52.462;16.898;2024-03-17T11:55:18;6.58;;;3.47;;
32872;SDS011;19224;52.462;16.898;2024-03-17T11:57:55;10.23;;;4.05;;
32872;SDS011;19224;52.462;16.898;2024-03-17T12:00:27;7.20;;;3.40;;
32872;SDS011;19224;52.462;16.898;2024-03-17T12:02:58;5.72;;;3.10;;
32872;SDS011;19224;52.462;16.898;2024-03-17T12:05:30;4.67;;;2.62;;
32872;SDS011;19224;52.462;16.898;2024-03-17T12:08:00;6.15;;;2.60;;
32872;SDS011;19224;52.462;16.898;2024-03-17T12:10:31;3.75;;;2.17;;
32872;SDS011;19224;52.462;16.898;2024-03-17T12:13:01;6.20;;;2.42;;
32872;SDS011;19224;52.462;16.898;2024-03-17T12:15:32;5.97;;;1.98;;
32872;SDS011;19224;52.462;16.898;2024-03-17T12:18:03;3.90;;;2.00;;
32872;SDS011;19224;52.462;16.898;2024-03-17T12:20:33;2.55;;;1.50;;
32872;SDS011;19224;52.462;16.898;2024-03-17T12:23:04;2.45;;;1.27;;
32872;SDS011;19224;52.462;16.898;2024-03-17T12:25:37;0.95;;;0.80;;
32872;SDS011;19224;52.462;16.898;2024-03-17T12:28:15;1.02;;;0.70;;
32872;SDS011;19224;52.462;16.898;2024-03-17T12:30:45;1.87;;;0.90;;
32872;SDS011;19224;52.462;16.898;2024-03-17T12:33:16;1.98;;;0.98;;
32872;SDS011;19224;52.462;16.898;2024-03-17T12:35:48;2.25;;;1.30;;
32872;SDS011;19224;52.462;16.898;2024-03-17T12:38:20;2.17;;;0.98;;
32872;SDS011;19224;52.462;16.898;2024-03-17T12:40:51;3.40;;;1.10;;
32872;SDS011;19224;52.462;16.898;2024-03-17T12:43:21;2.02;;;0.60;;
32872;SDS011;19224;52.462;16.898;2024-03-17T12:45:55;1.87;;;0.90;;
32872;SDS011;19224;52.462;16.898;2024-03-17T12:48:25;1.60;;;1.00;;
32872;SDS011;19224;52.462;16.898;2024-03-17T12:50:55;0.95;;;0.72;;
32872;SDS011;19224;52.462;16.898;2024-03-17T12:53:26;2.52;;;0.78;;
32872;SDS011;19224;52.462;16.898;2024-03-17T12:55:56;1.02;;;0.90;;
32872;SDS011;19224;52.462;16.898;2024-03-17T12:58:44;7.83;;;1.77;;
32872;SDS011;19224;52.462;16.898;2024-03-17T13:01:32;2.65;;;0.72;;
32872;SDS011;19224;52.462;16.898;2024-03-17T13:04:10;1.98;;;1.10;;
32872;SDS011;19224;52.462;16.898;2024-03-17T13:06:36;2.37;;;0.95;;
32872;SDS011;19224;52.462;16.898;2024-03-17T13:09:06;1.37;;;0.70;;
32872;SDS011;19224;52.462;16.898;2024-03-17T13:11:38;1.57;;;0.70;;
32872;SDS011;19224;52.462;16.898;2024-03-17T13:14:08;1.07;;;0.72;;
32872;SDS011;19224;52.462;16.898;2024-03-17T13:16:40;1.22;;;0.60;;
32872;SDS011;19224;52.462;16.898;2024-03-17T13:19:11;1.05;;;0.53;;
32872;SDS011;19224;52.462;16.898;2024-03-17T13:21:41;1.12;;;0.68;;
32872;SDS011;19224;52.462;16.898;2024-03-17T13:24:11;1.60;;;1.05;;
32872;SDS011;19224;52.462;16.898;2024-03-17T13:26:41;1.47;;;0.60;;
32872;SDS011;19224;52.462;16.898;2024-03-17T13:29:12;1.77;;;0.53;;
32872;SDS011;19224;52.462;16.898;2024-03-17T13:31:42;0.57;;;0.42;;
32872;SDS011;19224;52.462;16.898;2024-03-17T13:34:12;1.37;;;0.78;;
32872;SDS011;19224;52.462;16.898;2024-03-17T13:36:43;1.15;;;0.70;;
32872;SDS011;19224;52.462;16.898;2024-03-17T13:39:13;1.30;;;0.65;;
32872;SDS011;19224;52.462;16.898;2024-03-17T13:41:46;1.20;;;0.88;;
32872;SDS011;19224;52.462;16.898;2024-03-17T13:44:18;6.78;;;1.80;;
32872;SDS011;19224;52.462;16.898;2024-03-17T13:46:48;0.88;;;0.50;;
32872;SDS011;19224;52.462;16.898;2024-03-17T13:49:19;0.85;;;0.80;;
32872;SDS011;19224;52.462;16.898;2024-03-17T13:51:50;0.90;;;0.60;;
32872;SDS011;19224;52.462;16.898;2024-03-17T13:54:21;0.85;;;0.60;;
32872;SDS011;19224;52.462;16.898;2024-03-17T13:56:53;1.05;;;0.70;;
32872;SDS011;19224;52.462;16.898;2024-03-17T13:59:25;1.77;;;1.00;;
32872;SDS011;19224;52.462;16.898;2024-03-17T14:01:55;1.62;;;1.07;;
32872;SDS011;19224;52.462;16.898;2024-03-17T14:04:25;1.50;;;1.00;;
32872;SDS011;19224;52.462;16.898;2024-03-17T14:06:56;1.30;;;0.60;;
32872;SDS011;19224;52.462;16.898;2024-03-17T14:09:29;1.30;;;0.85;;
32872;SDS011;19224;52.462;16.898;2024-03-17T14:11:59;0.95;;;0.57;;
32872;SDS011;19224;52.462;16.898;2024-03-17T14:14:30;2.52;;;1.80;;
32872;SDS011;19224;52.462;16.898;2024-03-17T14:17:01;2.65;;;0.80;;
32872;SDS011;19224;52.462;16.898;2024-03-17T14:19:31;0.93;;;0.53;;
32872;SDS011;19224;52.462;16.898;2024-03-17T14:22:01;1.07;;;0.88;;
32872;SDS011;19224;52.462;16.898;2024-03-17T14:24:32;2.00;;;0.57;;
32872;SDS011;19224;52.462;16.898;2024-03-17T14:27:02;1.30;;;0.70;;
32872;SDS011;19224;52.462;16.898;2024-03-17T14:29:33;1.95;;;0.85;;
32872;SDS011;19224;52.462;16.898;2024-03-17T14:32:04;0.95;;;0.50;;
32872;SDS011;19224;52.462;16.898;2024-03-17T14:34:35;0.50;;;0.50;;
32872;SDS011;19224;52.462;16.898;2024-03-17T14:37:05;5.05;;;0.50;;
32872;SDS011;19224;52.462;16.898;2024-03-17T14:39:35;0.53;;;0.50;;
32872;SDS011;19224;52.462;16.898;2024-03-17T14:42:06;1.95;;;0.98;;
32872;SDS011;19224;52.462;16.898;2024-03-17T14:44:36;1.75;;;0.98;;
32872;SDS011;19224;52.462;16.898;2024-03-17T14:47:06;3.12;;;0.80;;
32872;SDS011;19224;52.462;16.898;2024-03-17T14:49:38;2.30;;;0.80;;
32872;SDS011;19224;52.462;16.898;2024-03-17T14:52:09;0.95;;;0.70;;
32872;SDS011;19224;52.462;16.898;2024-03-17T14:54:39;2.50;;;0.75;;
32872;SDS011;19224;52.462;16.898;2024-03-17T14:57:10;2.50;;;1.30;;
32872;SDS011;19224;52.462;16.898;2024-03-17T14:59:42;1.27;;;0.88;;